Time;durP1;ratioP1;P1;durP2;ratioP2;P2;SDS_P1;SDS_P2;PMS_P1;PMS_P2;Temp;Humidity;BMP_temperature;BMP_pressure;BME280_temperature;BME280_humidity;BME280_pressure;Samples;Min_cycle;Max_cycle;Signal;HPM_P1;HPM_P2
2021/09/27 00:01:01;;;;;;;53.83;35.95;;;14.50;99.90;;;;;;6052521;23;20162;-93
2021/09/27 00:03:57;;;;;;;54.13;35.35;;;14.60;99.90;;;;;;6049266;23;20031;-91
2021/09/27 00:07:13;;;;;;;56.00;35.15;;;14.60;99.90;;;;;;6049870;23;20097;-92
2021/09/27 00:15:42;;;;;;;;;;;;;;;;;;;;;
2021/09/27 00:19:50;;;;;;;53.00;35.05;;;14.60;99.90;;;;;;5965388;24;20180;-92
2021/09/27 00:47:36;;;;;;;39.77;24.37;;;14.30;99.90;;;;;;6257066;23;20503;-93
2021/09/27 00:54:32;;;;;;;43.85;29.67;;;14.20;99.90;;;;;;6222066;23;20323;-92
2021/09/27 00:57:48;;;;;;;40.75;29.10;;;14.20;99.90;;;;;;6206509;23;20086;-92
2021/09/27 01:00:43;;;;;;;37.45;27.35;;;14.20;99.90;;;;;;6230014;23;20029;-93
2021/09/27 01:11:16;;;;;;;33.53;23.58;;;14.30;99.90;;;;;;6098471;23;20024;-92
2021/09/27 01:15:08;;;;;;;28.20;22.48;;;14.40;99.90;;;;;;6225481;23;20028;-92
2021/09/27 01:18:45;;;;;;;30.25;22.35;;;14.50;99.90;;;;;;6223110;23;20033;-92
2021/09/27 01:21:50;;;;;;;28.33;21.85;;;14.50;99.90;;;;;;6226254;23;20020;-93
2021/09/27 01:25:35;;;;;;;29.75;21.83;;;14.50;99.90;;;;;;6197566;23;20025;-93
2021/09/27 01:28:31;;;;;;;29.50;22.58;;;14.50;99.90;;;;;;6163074;23;20025;-92
2021/09/27 01:32:43;;;;;;;;;;;;;;;;;;;;;
2021/09/27 01:44:21;;;;;;;31.13;21.33;;;14.30;99.90;;;;;;6116235;23;20098;-93
2021/09/27 01:52:37;;;;;;;28.42;20.92;;;14.20;99.90;;;;;;5999391;23;20164;-93
2021/09/27 01:56:54;;;;;;;28.48;21.25;;;14.20;99.90;;;;;;5957131;24;20039;-93
2021/09/27 02:04:45;;;;;;;27.27;20.48;;;14.10;99.90;;;;;;5913993;24;20014;-94
2021/09/27 02:12:43;;;;;;;30.00;22.23;;;14.00;99.90;;;;;;5885694;24;20017;-94
2021/09/27 02:16:25;;;;;;;30.25;21.65;;;14.00;99.90;;;;;;5864848;24;20050;-93
2021/09/27 02:19:33;;;;;;;29.83;21.42;;;14.00;99.90;;;;;;5808468;24;20040;-93
2021/09/27 02:23:26;;;;;;;31.88;21.70;;;14.00;99.90;;;;;;5915286;24;20021;-93
2021/09/27 02:30:51;;;;;;;28.15;21.38;;;14.00;99.90;;;;;;5864803;24;20079;-92
2021/09/27 02:34:35;;;;;;;28.73;22.08;;;14.00;99.90;;;;;;5899267;24;20028;-92
2021/09/27 02:41:59;;;;;;;;;;;;;;;;;;;;;
2021/09/27 02:45:58;;;;;;;30.30;21.73;;;14.00;99.90;;;;;;5887404;24;20045;-93
2021/09/27 02:57:45;;;;;;;31.45;22.20;;;13.90;99.90;;;;;;5830428;24;20203;-93
2021/09/27 03:01:36;;;;;;;;;;;;;;;;;;;;;
2021/09/27 03:05:09;;;;;;;31.38;23.25;;;14.00;99.90;;;;;;5828819;24;20031;-93
2021/09/27 03:12:24;;;;;;;31.02;21.58;;;14.20;99.90;;;;;;5829509;24;20508;-93
2021/09/27 03:16:44;;;;;;;26.95;20.40;;;14.20;99.90;;;;;;5899129;24;20124;-92
2021/09/27 03:19:54;;;;;;;28.35;20.75;;;14.30;99.90;;;;;;5907498;24;20041;-93
2021/09/27 03:27:05;;;;;;;24.13;19.75;;;14.30;99.90;;;;;;5934864;24;20392;-92
2021/09/27 03:30:35;;;;;;;27.20;20.08;;;14.30;99.90;;;;;;5936299;24;20028;-93
2021/09/27 03:34:09;;;;;;;26.10;19.83;;;14.30;99.90;;;;;;5880188;24;20013;-93
2021/09/27 03:37:31;;;;;;;28.55;20.48;;;14.20;99.90;;;;;;5933351;24;20117;-92
2021/09/27 03:41:11;;;;;;;29.52;21.80;;;14.20;99.90;;;;;;5932225;24;20033;-94
2021/09/27 03:49:05;;;;;;;;;;;;;;;;;;;;;
2021/09/27 04:05:22;;;;;;;35.22;24.35;;;13.80;99.90;;;;;;5778317;24;20031;-94
2021/09/27 04:54:35;;;;;;;49.72;29.77;;;12.50;99.90;;;;;;6160532;23;20408;-88
2021/09/27 04:57:28;;;;;;;51.90;31.65;;;12.50;99.90;;;;;;6160698;23;20110;-87
2021/09/27 05:00:30;;;;;;;;;;;12.50;99.90;;;;;;6160684;23;20033;-89
2021/09/27 05:03:49;;;;;;;55.90;32.08;;;12.50;99.90;;;;;;6163311;23;20023;-89
2021/09/27 05:06:36;;;;;;;55.22;32.22;;;12.50;99.90;;;;;;6159698;23;20044;-89
2021/09/27 05:09:56;;;;;;;52.63;30.67;;;12.50;99.90;;;;;;6161083;23;20159;-88
2021/09/27 05:13:04;;;;;;;48.67;30.80;;;12.50;99.90;;;;;;6162607;23;20108;-89
2021/09/27 05:16:12;;;;;;;50.47;29.73;;;12.40;99.90;;;;;;6164034;23;20397;-88
2021/09/27 05:19:21;;;;;;;52.95;29.50;;;12.40;99.90;;;;;;6157686;23;20076;-87
2021/09/27 05:22:24;;;;;;;54.30;30.13;;;12.40;99.90;;;;;;6162626;23;20060;-88
2021/09/27 05:25:29;;;;;;;52.58;31.92;;;12.50;99.90;;;;;;6155860;23;20030;-88
2021/09/27 05:28:31;;;;;;;52.30;29.80;;;12.50;99.90;;;;;;6152527;23;20157;-88
2021/09/27 05:31:42;;;;;;;54.75;30.52;;;12.50;99.90;;;;;;6154381;23;20060;-86
2021/09/27 05:34:51;;;;;;;52.38;30.20;;;12.50;99.90;;;;;;6156086;23;20349;-91
2021/09/27 05:37:45;;;;;;;50.78;30.33;;;12.50;99.90;;;;;;6158091;23;20119;-88
2021/09/27 05:45:24;;;;;;;;;;;;;;;;;;;;;
2021/09/27 05:53:02;;;;;;;;;;;;;;;;;;;;;
2021/09/27 05:56:24;;;;;;;48.17;27.40;;;12.60;99.90;;;;;;5974854;24;20032;-93
2021/09/27 06:03:18;;;;;;;47.40;28.92;;;12.60;99.90;;;;;;6059370;23;20102;-92
2021/09/27 06:07:05;;;;;;;;;;;;;;;;;;;;;
2021/09/27 06:56:17;;;;;;;20.27;14.27;;;14.50;99.90;;;;;;6199213;23;20373;-92
2021/09/27 07:26:20;;;;;;;19.42;13.13;;;15.20;99.90;;;;;;5115735;27;20470;-91
2021/09/27 07:29:28;;;;;;;13.73;11.73;;;16.00;99.90;;;;;;5049375;28;20049;-92
2021/09/27 07:33:15;;;;;;;;;;;;;;;;;;;;;
2021/09/27 07:40:41;;;;;;;12.43;10.75;;;16.70;99.90;;;;;;5071944;28;20152;-93
2021/09/27 07:43:32;;;;;;;15.18;10.25;;;17.00;99.90;;;;;;5066518;28;20072;-92
2021/09/27 07:46:27;;;;;;;12.73;9.95;;;17.00;99.90;;;;;;5067629;28;20059;-92
2021/09/27 07:49:28;;;;;;;12.38;9.77;;;17.20;99.90;;;;;;5116006;28;20036;-92
2021/09/27 07:52:47;;;;;;;13.77;10.25;;;17.30;99.90;;;;;;5110626;28;20051;-95
2021/09/27 07:55:50;;;;;;;11.93;9.45;;;17.20;99.90;;;;;;5093350;28;20493;-92
2021/09/27 07:59:01;;;;;;;9.48;8.48;;;17.30;99.90;;;;;;5111798;28;20115;-88
2021/09/27 08:01:50;;;;;;;13.57;8.88;;;17.80;99.90;;;;;;5068231;28;20060;-89
2021/09/27 08:04:37;;;;;;;9.63;7.55;;;18.20;99.90;;;;;;5111762;28;20215;-90
2021/09/27 08:07:25;;;;;;;8.77;6.80;;;18.90;99.90;;;;;;5077508;28;20105;-90
2021/09/27 08:10:14;;;;;;;9.05;7.43;;;19.50;99.90;;;;;;5096190;28;20076;-88
2021/09/27 08:13:04;;;;;;;7.75;6.35;;;19.90;99.90;;;;;;5095805;28;20109;-90
2021/09/27 08:15:54;;;;;;;9.10;6.53;;;20.30;99.90;;;;;;5111019;28;20117;-91
2021/09/27 08:18:45;;;;;;;7.97;6.00;;;20.80;99.90;;;;;;5107212;28;20050;-88
2021/09/27 08:21:32;;;;;;;7.50;6.30;;;20.90;99.90;;;;;;5107869;28;20412;-90
2021/09/27 08:24:20;;;;;;;7.60;6.00;;;20.90;99.90;;;;;;5107979;28;20335;-90
2021/09/27 08:27:08;;;;;;;7.78;5.90;;;21.40;99.90;;;;;;5092616;28;20109;-92
2021/09/27 08:29:55;;;;;;;6.88;5.57;;;21.60;99.90;;;;;;5072167;28;20071;-88
2021/09/27 08:32:43;;;;;;;7.40;5.72;;;21.00;99.90;;;;;;5079317;28;20048;-89
2021/09/27 08:35:31;;;;;;;7.05;5.85;;;20.90;99.90;;;;;;5100668;28;20466;-90
2021/09/27 08:38:20;;;;;;;6.00;5.18;;;21.50;99.90;;;;;;5079667;28;20125;-89
2021/09/27 08:41:30;;;;;;;5.97;5.32;;;21.80;99.90;;;;;;5073006;28;20056;-88
2021/09/27 08:44:36;;;;;;;5.85;4.93;;;21.80;99.90;;;;;;5073494;28;20392;-89
2021/09/27 08:47:56;;;;;;;5.88;5.05;;;21.90;99.90;;;;;;5090838;28;20101;-88
2021/09/27 08:50:44;;;;;;;6.18;4.82;;;22.00;99.90;;;;;;5101305;28;20052;-88
2021/09/27 08:53:35;;;;;;;5.45;4.18;;;22.20;99.90;;;;;;5112719;28;20375;-88
2021/09/27 08:56:38;;;;;;;6.53;3.90;;;22.50;99.90;;;;;;5095708;28;20051;-89
2021/09/27 09:00:12;;;;;;;4.82;3.60;;;22.50;98.90;;;;;;5099619;28;20054;-90
2021/09/27 09:03:21;;;;;;;4.55;3.80;;;23.30;97.50;;;;;;5071781;28;20137;-90
2021/09/27 09:06:16;;;;;;;3.92;3.53;;;23.50;94.60;;;;;;5085684;28;20048;-88
2021/09/27 09:09:26;;;;;;;3.58;3.28;;;23.20;95.20;;;;;;5078550;28;20052;-88
2021/09/27 09:12:30;;;;;;;5.15;3.50;;;23.10;94.30;;;;;;5092420;28;20040;-90
2021/09/27 09:15:24;;;;;;;4.10;3.70;;;23.40;94.40;;;;;;5073932;28;20047;-88
2021/09/27 09:18:20;;;;;;;3.55;3.25;;;24.00;91.90;;;;;;5092931;28;20429;-89
2021/09/27 09:21:19;;;;;;;3.72;3.22;;;24.40;91.30;;;;;;5078153;28;20336;-89
2021/09/27 09:24:12;;;;;;;4.78;3.33;;;24.60;86.90;;;;;;5093139;28;20056;-90
2021/09/27 09:27:06;;;;;;;5.25;3.45;;;25.10;83.70;;;;;;5092386;28;20079;-89
2021/09/27 09:29:53;;;;;;;3.50;3.00;;;25.20;83.80;;;;;;5092181;28;20052;-89
2021/09/27 09:32:41;;;;;;;3.67;3.03;;;25.30;82.80;;;;;;5094333;28;20101;-91
2021/09/27 09:35:31;;;;;;;4.57;2.67;;;26.50;79.10;;;;;;5078120;28;20048;-90
2021/09/27 09:38:22;;;;;;;3.67;2.55;;;26.80;72.70;;;;;;5073696;28;20110;-90
2021/09/27 09:41:10;;;;;;;3.47;2.20;;;27.40;71.00;;;;;;5072231;28;20040;-90
2021/09/27 09:43:57;;;;;;;3.75;2.60;;;27.70;65.80;;;;;;5097920;28;20044;-88
2021/09/27 09:46:46;;;;;;;2.75;2.55;;;27.50;64.50;;;;;;5086095;28;20093;-90
2021/09/27 09:50:02;;;;;;;10.55;3.10;;;26.90;67.50;;;;;;5088516;28;20067;-89
2021/09/27 09:52:58;;;;;;;3.85;2.90;;;26.50;68.10;;;;;;5073351;28;20059;-89
2021/09/27 09:56:16;;;;;;;5.20;2.70;;;26.20;69.10;;;;;;5115825;28;20059;-91
2021/09/27 09:59:16;;;;;;;3.85;2.80;;;26.90;67.30;;;;;;5112409;28;20146;-90
2021/09/27 10:02:16;;;;;;;9.30;2.50;;;27.40;66.00;;;;;;5114821;28;20032;-90
2021/09/27 10:05:19;;;;;;;3.65;2.90;;;27.60;64.10;;;;;;5100023;28;20040;-90
2021/09/27 10:08:18;;;;;;;2.90;2.33;;;28.60;61.60;;;;;;5110723;28;20044;-92
2021/09/27 10:11:10;;;;;;;2.95;2.33;;;28.90;59.10;;;;;;5091971;28;20389;-91
2021/09/27 10:13:58;;;;;;;2.10;2.00;;;29.30;59.40;;;;;;5092550;28;20043;-87
2021/09/27 10:16:50;;;;;;;3.28;2.38;;;29.10;58.10;;;;;;5093027;28;20398;-90
2021/09/27 10:19:53;;;;;;;4.35;2.53;;;27.60;60.90;;;;;;5092635;28;20113;-89
2021/09/27 10:22:52;;;;;;;2.50;2.10;;;28.10;60.70;;;;;;5098784;28;20066;-89
2021/09/27 10:25:51;;;;;;;3.17;2.40;;;28.30;58.60;;;;;;5093361;28;20081;-87
2021/09/27 10:28:40;;;;;;;1.80;1.70;;;28.90;57.70;;;;;;5075953;28;20164;-88
2021/09/27 10:31:28;;;;;;;2.53;2.33;;;29.10;56.10;;;;;;5091691;28;20094;-91
2021/09/27 10:34:22;;;;;;;2.30;2.10;;;28.20;57.00;;;;;;5092089;28;20048;-93
2021/09/27 10:37:21;;;;;;;2.38;2.17;;;28.50;57.20;;;;;;5077399;28;20040;-89
2021/09/27 10:40:15;;;;;;;3.97;2.50;;;28.10;56.30;;;;;;5090973;28;20105;-89
2021/09/27 10:43:05;;;;;;;3.63;2.53;;;27.30;58.50;;;;;;5092231;28;20124;-89
2021/09/27 10:45:57;;;;;;;3.88;3.03;;;27.20;59.30;;;;;;5077527;28;20052;-89
2021/09/27 10:48:50;;;;;;;2.85;2.60;;;27.30;59.10;;;;;;5091481;28;20139;-90
2021/09/27 10:51:40;;;;;;;2.70;2.20;;;27.40;58.60;;;;;;5075034;28;20040;-91
2021/09/27 10:54:41;;;;;;;1.92;1.73;;;28.40;56.40;;;;;;5090692;28;20048;-90
2021/09/27 10:57:39;;;;;;;2.55;2.10;;;28.40;55.20;;;;;;5091663;28;20147;-90
2021/09/27 11:00:32;;;;;;;3.03;2.30;;;26.70;57.30;;;;;;5094508;28;20441;-91
2021/09/27 11:03:53;;;;;;;2.00;1.90;;;25.60;61.00;;;;;;5093067;28;20375;-90
2021/09/27 11:06:49;;;;;;;2.25;1.88;;;25.40;62.60;;;;;;5073320;28;20071;-90
2021/09/27 11:09:36;;;;;;;1.85;1.60;;;26.40;61.70;;;;;;5076263;28;20059;-90
2021/09/27 11:12:43;;;;;;;3.85;1.77;;;27.90;56.30;;;;;;5084897;28;20465;-91
2021/09/27 11:15:39;;;;;;;5.70;2.15;;;27.80;55.50;;;;;;5066702;28;20151;-92
2021/09/27 11:18:31;;;;;;;2.30;1.90;;;27.50;56.00;;;;;;5090942;28;20191;-92
2021/09/27 11:21:37;;;;;;;1.67;1.58;;;27.30;56.10;;;;;;5091743;28;20363;-90
2021/09/27 11:25:09;;;;;;;2.22;1.67;;;28.00;54.40;;;;;;5074110;28;20048;-91
2021/09/27 11:28:10;;;;;;;4.07;2.47;;;27.40;55.40;;;;;;5019420;28;20531;-89
2021/09/27 11:30:58;;;;;;;3.97;2.20;;;26.30;59.20;;;;;;5052318;28;20156;-90
2021/09/27 11:33:49;;;;;;;2.13;1.88;;;25.20;61.80;;;;;;5050543;28;20796;-90
2021/09/27 11:36:45;;;;;;;3.47;2.50;;;24.70;64.10;;;;;;5051479;28;20088;-90
2021/09/27 11:39:41;;;;;;;3.78;2.10;;;25.70;62.10;;;;;;5051148;28;20060;-90
2021/09/27 11:42:34;;;;;;;2.42;2.00;;;26.30;59.80;;;;;;5050983;28;20127;-91
2021/09/27 11:45:33;;;;;;;2.05;1.83;;;26.10;59.40;;;;;;5069026;28;20357;-91
2021/09/27 11:48:30;;;;;;;5.10;2.10;;;25.80;60.70;;;;;;5058675;28;20048;-90
2021/09/27 11:51:27;;;;;;;3.78;1.92;;;25.20;62.40;;;;;;5070157;28;20044;-90
2021/09/27 11:54:51;;;;;;;3.97;2.10;;;24.70;64.60;;;;;;5070939;28;20131;-88
2021/09/27 11:57:51;;;;;;;4.47;2.13;;;25.00;64.00;;;;;;5039748;28;20056;-90
2021/09/27 12:00:54;;;;;;;2.42;2.05;;;25.30;63.50;;;;;;5070937;28;20132;-91
2021/09/27 12:03:55;;;;;;;4.43;1.85;;;25.60;62.40;;;;;;5074218;28;20051;-92
2021/09/27 12:06:53;;;;;;;3.05;1.88;;;25.90;60.20;;;;;;5065365;28;20060;-92
2021/09/27 12:09:48;;;;;;;4.38;1.65;;;26.50;60.20;;;;;;5053018;28;20055;-92
2021/09/27 12:12:47;;;;;;;2.75;1.77;;;26.40;59.00;;;;;;5063412;28;20056;-91
2021/09/27 12:15:39;;;;;;;2.35;1.88;;;26.80;59.30;;;;;;5073394;28;20485;-91
2021/09/27 12:18:54;;;;;;;5.65;1.88;;;27.10;56.80;;;;;;5072708;28;20131;-89
2021/09/27 12:21:49;;;;;;;2.55;2.03;;;26.40;59.20;;;;;;5073833;28;20037;-91
2021/09/27 12:24:40;;;;;;;2.15;1.88;;;26.10;59.80;;;;;;5083127;28;20172;-89
2021/09/27 12:27:29;;;;;;;2.00;1.90;;;25.70;60.90;;;;;;5092751;28;20040;-87
2021/09/27 12:30:16;;;;;;;2.20;2.00;;;24.90;62.40;;;;;;5078797;28;20536;-90
2021/09/27 12:33:25;;;;;;;2.63;2.30;;;23.90;66.30;;;;;;5093360;28;20161;-88
2021/09/27 12:36:20;;;;;;;2.60;1.95;;;23.10;71.30;;;;;;5095511;28;20094;-88
2021/09/27 12:39:11;;;;;;;3.67;2.05;;;22.70;72.30;;;;;;5105754;28;20067;-89
2021/09/27 12:42:01;;;;;;;3.22;2.20;;;22.50;74.10;;;;;;5103208;28;20048;-89
2021/09/27 12:45:03;;;;;;;2.80;2.10;;;22.30;75.30;;;;;;5106041;28;20056;-88
2021/09/27 12:47:53;;;;;;;2.50;2.28;;;22.00;75.80;;;;;;5093815;28;20059;-89
2021/09/27 12:50:48;;;;;;;2.47;2.25;;;21.80;78.20;;;;;;5108407;28;20048;-90
2021/09/27 12:53:41;;;;;;;3.10;2.30;;;21.90;78.80;;;;;;5098677;28;20050;-90
2021/09/27 12:56:32;;;;;;;2.15;2.00;;;21.90;78.00;;;;;;5095075;28;20739;-90
2021/09/27 12:59:25;;;;;;;2.00;1.73;;;21.80;77.40;;;;;;5097001;28;20025;-90
2021/09/27 13:02:14;;;;;;;3.53;1.80;;;21.80;77.80;;;;;;5094092;28;20056;-90
2021/09/27 13:05:11;;;;;;;2.38;1.60;;;21.90;78.10;;;;;;5089063;28;20052;-90
2021/09/27 13:07:59;;;;;;;2.53;1.92;;;22.00;77.60;;;;;;5089348;28;20048;-90
2021/09/27 13:10:54;;;;;;;1.77;1.42;;;22.60;76.00;;;;;;5088871;28;20044;-91
2021/09/27 13:14:09;;;;;;;2.20;1.63;;;22.90;71.70;;;;;;5087012;28;20415;-92
2021/09/27 13:17:15;;;;;;;2.60;1.60;;;23.00;71.00;;;;;;5087660;28;20048;-91
2021/09/27 13:20:28;;;;;;;1.73;1.52;;;22.90;70.40;;;;;;5088123;28;20355;-91
2021/09/27 13:23:23;;;;;;;4.55;1.60;;;22.70;70.20;;;;;;5076872;28;20483;-88
2021/09/27 13:26:19;;;;;;;2.05;1.50;;;22.40;72.30;;;;;;5079341;28;20065;-87
2021/09/27 13:29:28;;;;;;;2.22;1.60;;;22.40;72.30;;;;;;5079731;28;20077;-91
2021/09/27 13:32:20;;;;;;;3.78;1.38;;;22.20;76.10;;;;;;5088130;28;20050;-89
2021/09/27 13:35:19;;;;;;;1.92;1.70;;;22.40;74.00;;;;;;5091030;28;20149;-91
2021/09/27 13:38:28;;;;;;;2.35;1.63;;;22.50;74.00;;;;;;5078280;28;20045;-91
2021/09/27 13:41:21;;;;;;;1.73;1.40;;;22.70;71.80;;;;;;5093238;28;20119;-88
2021/09/27 13:44:58;;;;;;;2.53;1.60;;;22.60;70.70;;;;;;5094187;28;20066;-89
2021/09/27 13:47:46;;;;;;;2.08;1.48;;;22.50;71.40;;;;;;5042722;28;20603;-89
2021/09/27 13:50:34;;;;;;;3.92;1.40;;;22.40;72.80;;;;;;5083496;28;20525;-90
2021/09/27 13:53:26;;;;;;;4.10;1.50;;;22.30;73.70;;;;;;5085019;28;20059;-89
2021/09/27 13:56:17;;;;;;;2.63;1.52;;;22.30;72.20;;;;;;5057875;28;20059;-90
2021/09/27 13:59:06;;;;;;;1.83;1.23;;;22.30;72.10;;;;;;5086951;28;20039;-89
2021/09/27 14:01:54;;;;;;;1.95;1.48;;;22.30;72.90;;;;;;5072545;28;20135;-91
2021/09/27 14:04:47;;;;;;;1.60;1.35;;;22.30;72.40;;;;;;5088179;28;20492;-90
2021/09/27 14:07:37;;;;;;;2.05;1.48;;;22.20;71.90;;;;;;5091416;28;20040;-93
2021/09/27 14:10:27;;;;;;;2.22;1.48;;;22.30;72.90;;;;;;5061821;28;20044;-90
2021/09/27 14:13:29;;;;;;;2.28;1.40;;;22.40;72.10;;;;;;5095063;28;20097;-93
2021/09/27 14:16:20;;;;;;;1.92;1.40;;;22.40;72.00;;;;;;5079098;28;20374;-93
2021/09/27 14:19:10;;;;;;;2.22;1.48;;;22.30;72.50;;;;;;5099695;28;20098;-93
2021/09/27 14:22:00;;;;;;;2.22;1.45;;;22.20;74.10;;;;;;5082243;28;20063;-92
2021/09/27 14:24:47;;;;;;;1.60;1.50;;;22.10;75.10;;;;;;5096577;28;20067;-92
2021/09/27 14:27:40;;;;;;;2.15;1.30;;;22.00;75.10;;;;;;5082043;28;20040;-92
2021/09/27 14:30:30;;;;;;;1.73;1.30;;;22.00;75.10;;;;;;5095349;28;20036;-93
2021/09/27 14:33:18;;;;;;;1.85;1.40;;;22.00;75.70;;;;;;5077660;28;20393;-94
2021/09/27 14:36:07;;;;;;;2.35;1.50;;;22.10;73.30;;;;;;5093987;28;20048;-90
2021/09/27 14:38:54;;;;;;;4.30;1.40;;;22.00;73.90;;;;;;5080011;28;20143;-92
2021/09/27 14:41:41;;;;;;;3.53;1.70;;;21.80;75.40;;;;;;5073642;28;20474;-92
2021/09/27 14:44:31;;;;;;;2.28;1.45;;;21.80;75.80;;;;;;5087708;28;20052;-91
2021/09/27 14:47:21;;;;;;;1.88;1.75;;;21.70;75.10;;;;;;5061309;28;20378;-93
2021/09/27 14:50:13;;;;;;;6.80;1.45;;;21.50;77.00;;;;;;5073569;28;20136;-93
2021/09/27 14:53:03;;;;;;;4.03;1.63;;;21.50;77.20;;;;;;5065834;28;20055;-93
2021/09/27 14:55:53;;;;;;;4.07;1.77;;;21.50;78.10;;;;;;5099894;28;20043;-92
2021/09/27 14:58:44;;;;;;;2.35;1.52;;;21.50;77.40;;;;;;5084758;28;20129;-92
2021/09/27 15:01:32;;;;;;;1.85;1.60;;;21.30;77.60;;;;;;5095665;28;20500;-92
2021/09/27 15:04:22;;;;;;;1.60;1.40;;;21.20;79.60;;;;;;5076284;28;20469;-93
2021/09/27 15:07:13;;;;;;;128.57;79.47;;;21.20;79.90;;;;;;5093746;28;20367;-93
2021/09/27 15:10:01;;;;;;;2.53;1.63;;;21.30;79.10;;;;;;5096347;28;20068;-91
2021/09/27 15:12:48;;;;;;;3.55;1.92;;;21.20;79.00;;;;;;5092260;28;20055;-91
2021/09/27 15:15:36;;;;;;;3.53;1.90;;;21.20;80.10;;;;;;5083430;28;20121;-93
2021/09/27 15:18:26;;;;;;;1.85;1.70;;;21.10;80.40;;;;;;5086537;28;20044;-91
2021/09/27 15:21:16;;;;;;;3.63;1.90;;;21.10;81.40;;;;;;5090259;28;20446;-92
2021/09/27 15:24:05;;;;;;;5.57;3.65;;;21.10;82.20;;;;;;5078460;28;20048;-91
2021/09/27 15:26:56;;;;;;;1.85;1.50;;;21.10;81.30;;;;;;5091210;28;20450;-92
2021/09/27 15:29:45;;;;;;;4.20;1.90;;;21.00;81.80;;;;;;5084656;28;20151;-92
2021/09/27 15:32:32;;;;;;;3.25;1.95;;;20.90;82.40;;;;;;5079619;28;20075;-92
2021/09/27 15:35:20;;;;;;;2.63;1.63;;;20.80;82.30;;;;;;5092324;28;20043;-92
2021/09/27 15:38:11;;;;;;;4.53;1.88;;;20.80;82.70;;;;;;5062588;28;20044;-92
2021/09/27 15:40:59;;;;;;;4.17;1.70;;;20.70;83.10;;;;;;5073695;28;20044;-92
2021/09/27 15:43:46;;;;;;;2.65;1.58;;;20.70;84.30;;;;;;5095148;28;20262;-93
2021/09/27 15:46:35;;;;;;;3.10;1.85;;;20.70;84.80;;;;;;5095779;28;20417;-92
2021/09/27 15:49:25;;;;;;;3.17;1.80;;;20.80;86.90;;;;;;5083537;28;20048;-92
2021/09/27 15:52:14;;;;;;;4.00;1.83;;;20.80;87.80;;;;;;5106073;28;20063;-93
2021/09/27 15:55:02;;;;;;;3.05;1.95;;;20.60;88.80;;;;;;5090328;28;20120;-92
2021/09/27 15:57:52;;;;;;;3.28;1.88;;;20.60;89.40;;;;;;5088986;28;20428;-92
2021/09/27 16:00:42;;;;;;;3.92;1.70;;;20.60;90.00;;;;;;5076524;28;20048;-91
2021/09/27 16:03:32;;;;;;;8.75;5.38;;;20.50;89.80;;;;;;5090782;28;20561;-91
2021/09/27 16:06:23;;;;;;;2.97;1.95;;;20.30;90.50;;;;;;5096055;28;20463;-93
2021/09/27 16:09:10;;;;;;;2.40;1.67;;;20.30;91.00;;;;;;5093910;28;20081;-92
2021/09/27 16:11:57;;;;;;;4.43;1.88;;;20.20;91.00;;;;;;5083719;28;20117;-93
2021/09/27 16:14:47;;;;;;;4.35;1.92;;;20.20;91.30;;;;;;5101102;28;20079;-93
2021/09/27 16:17:34;;;;;;;3.15;1.63;;;20.20;91.40;;;;;;5094662;28;20044;-93
2021/09/27 16:20:22;;;;;;;4.75;2.10;;;20.20;92.50;;;;;;5095769;28;20133;-92
2021/09/27 16:23:11;;;;;;;3.17;1.75;;;20.30;92.50;;;;;;5084509;28;20097;-92
2021/09/27 16:25:58;;;;;;;2.53;1.88;;;20.30;92.40;;;;;;5097220;28;20098;-91
2021/09/27 16:28:47;;;;;;;6.78;1.83;;;20.30;92.60;;;;;;5094490;28;20076;-93
2021/09/27 16:31:37;;;;;;;2.35;1.60;;;20.30;92.10;;;;;;5081412;28;20533;-93
2021/09/27 16:34:26;;;;;;;2.22;1.50;;;20.30;92.50;;;;;;5079775;28;20055;-92
2021/09/27 16:37:14;;;;;;;1.88;1.67;;;20.20;92.20;;;;;;5091579;28;20181;-91
2021/09/27 16:40:01;;;;;;;7.60;1.80;;;20.30;92.60;;;;;;5078474;28;20051;-93
2021/09/27 16:42:51;;;;;;;7.80;1.98;;;20.20;92.40;;;;;;5095302;28;20051;-91
2021/09/27 16:45:41;;;;;;;4.05;3.08;;;20.10;92.70;;;;;;5094572;28;20487;-93
2021/09/27 16:48:28;;;;;;;3.05;1.65;;;20.00;93.70;;;;;;5083652;28;20160;-93
2021/09/27 16:51:18;;;;;;;3.55;1.80;;;20.00;94.10;;;;;;5095397;28;20141;-93
2021/09/27 16:54:05;;;;;;;2.53;1.75;;;20.00;94.30;;;;;;5081019;28;20497;-94
2021/09/27 16:56:52;;;;;;;3.85;2.35;;;19.90;94.40;;;;;;5090435;28;20112;-93
2021/09/27 16:59:41;;;;;;;3.15;2.00;;;19.80;94.70;;;;;;5095766;28;20086;-93
2021/09/27 17:02:28;;;;;;;3.35;2.00;;;19.70;95.10;;;;;;5097125;28;20040;-94
2021/09/27 17:05:16;;;;;;;5.00;2.58;;;19.70;95.70;;;;;;5098619;28;20116;-93
2021/09/27 17:08:06;;;;;;;4.18;2.50;;;19.50;96.00;;;;;;5070523;28;20052;-93
2021/09/27 17:10:53;;;;;;;3.97;2.35;;;19.50;96.80;;;;;;5095545;28;20138;-93
2021/09/27 17:13:47;;;;;;;4.55;2.50;;;19.40;97.40;;;;;;5082114;28;20048;-93
2021/09/27 17:19:40;;;;;;;4.70;2.28;;;19.20;98.90;;;;;;5099057;28;20140;-93
2021/09/27 17:22:28;;;;;;;5.38;2.42;;;19.10;99.70;;;;;;5091312;28;20196;-93
2021/09/27 17:25:21;;;;;;;5.88;2.38;;;19.00;99.90;;;;;;5097192;28;20097;-93
2021/09/27 17:28:14;;;;;;;5.43;2.40;;;18.90;99.90;;;;;;5107652;28;20044;-93
2021/09/27 17:31:14;;;;;;;2.97;2.15;;;18.90;99.90;;;;;;5102756;28;20436;-92
2021/09/27 17:34:03;;;;;;;3.80;2.20;;;18.70;99.90;;;;;;5106012;28;20108;-93
2021/09/27 17:36:50;;;;;;;4.72;2.30;;;18.60;99.90;;;;;;5099807;28;20097;-93
2021/09/27 17:39:37;;;;;;;3.70;2.15;;;18.50;99.90;;;;;;5109695;28;20063;-91
2021/09/27 17:42:27;;;;;;;5.70;2.60;;;18.40;99.90;;;;;;5109023;28;20080;-93
2021/09/27 17:45:17;;;;;;;3.30;2.60;;;18.20;99.90;;;;;;5099121;28;20047;-92
2021/09/27 17:48:05;;;;;;;3.88;3.38;;;18.00;99.90;;;;;;5084634;28;20066;-94
2021/09/27 17:50:52;;;;;;;3.20;2.63;;;17.90;99.90;;;;;;5081756;28;20051;-93
2021/09/27 17:53:40;;;;;;;3.80;3.22;;;17.80;99.90;;;;;;5080784;28;20439;-92
2021/09/27 17:56:30;;;;;;;7.38;5.07;;;17.70;99.90;;;;;;5088859;28;20390;-93
2021/09/27 17:59:17;;;;;;;3.30;3.00;;;17.70;99.90;;;;;;5103156;28;20048;-92
2021/09/27 18:02:04;;;;;;;5.03;2.85;;;17.60;99.90;;;;;;5073568;28;20052;-93
2021/09/27 18:04:54;;;;;;;4.93;3.42;;;17.60;99.90;;;;;;5096613;28;20078;-93
2021/09/27 18:07:42;;;;;;;8.32;5.55;;;17.50;99.90;;;;;;5094570;28;20040;-92
2021/09/27 18:10:33;;;;;;;8.07;4.18;;;17.50;99.90;;;;;;5074475;28;20040;-94
2021/09/27 18:13:21;;;;;;;6.60;3.15;;;17.50;99.90;;;;;;5090083;28;20051;-92
2021/09/27 18:16:09;;;;;;;6.55;3.67;;;17.50;99.90;;;;;;5089082;28;20040;-92
2021/09/27 18:18:57;;;;;;;4.95;3.20;;;17.50;99.90;;;;;;5094523;28;20040;-92
2021/09/27 18:21:46;;;;;;;7.32;3.45;;;17.40;99.90;;;;;;5082325;28;20040;-93
2021/09/27 18:24:34;;;;;;;8.77;4.45;;;17.20;99.90;;;;;;5074865;28;20129;-93
2021/09/27 18:27:22;;;;;;;4.75;3.50;;;17.10;99.90;;;;;;5073509;28;20052;-92
2021/09/27 18:30:11;;;;;;;4.80;3.33;;;17.00;99.90;;;;;;5072157;28;20177;-93
2021/09/27 18:33:01;;;;;;;6.00;3.90;;;16.90;99.90;;;;;;5074501;28;20664;-93
2021/09/27 18:35:48;;;;;;;6.50;3.63;;;16.80;99.90;;;;;;5069960;28;20086;-94
2021/09/27 18:38:36;;;;;;;5.07;3.88;;;16.80;99.90;;;;;;5075136;28;20136;-93
2021/09/27 18:41:25;;;;;;;4.47;3.60;;;16.80;99.90;;;;;;5071326;28;20037;-93
2021/09/27 18:44:15;;;;;;;4.78;3.67;;;16.80;99.90;;;;;;5076194;28;20033;-92
2021/09/27 18:47:05;;;;;;;4.35;3.80;;;16.80;99.90;;;;;;5066637;28;20059;-92
2021/09/27 18:49:52;;;;;;;4.68;2.60;;;16.90;99.90;;;;;;5062590;28;20036;-93
2021/09/27 18:52:40;;;;;;;4.03;3.20;;;17.00;99.90;;;;;;5057334;28;20055;-93
2021/09/27 18:55:30;;;;;;;4.38;3.33;;;17.00;99.90;;;;;;5083540;28;20127;-93
2021/09/27 18:58:18;;;;;;;3.95;3.40;;;17.00;99.90;;;;;;5070867;28;20068;-93
2021/09/27 19:01:08;;;;;;;5.65;3.67;;;17.00;99.90;;;;;;5073744;28;20045;-93
2021/09/27 19:03:56;;;;;;;4.85;3.78;;;17.00;99.90;;;;;;5067542;28;20066;-92
2021/09/27 19:06:43;;;;;;;6.57;3.67;;;17.00;99.90;;;;;;5073621;28;20120;-92
2021/09/27 19:09:31;;;;;;;4.20;3.00;;;17.00;99.90;;;;;;5056085;28;20344;-93
2021/09/27 19:12:18;;;;;;;3.70;3.30;;;17.00;99.90;;;;;;5076848;28;20051;-93
2021/09/27 19:15:07;;;;;;;4.18;2.80;;;16.90;99.90;;;;;;5072303;28;20128;-91
2021/09/27 19:17:55;;;;;;;5.45;3.10;;;17.00;99.90;;;;;;5064605;28;20168;-93
2021/09/27 19:20:47;;;;;;;5.80;3.78;;;16.90;99.90;;;;;;5072846;28;20056;-93
2021/09/27 19:23:35;;;;;;;6.03;3.53;;;16.90;99.90;;;;;;5075397;28;20041;-91
2021/09/27 19:26:26;;;;;;;4.15;3.65;;;16.80;99.90;;;;;;5095097;28;20153;-94
2021/09/27 19:29:16;;;;;;;6.47;3.80;;;16.70;99.90;;;;;;5093457;28;20101;-92
2021/09/27 19:32:06;;;;;;;6.32;3.50;;;16.60;99.90;;;;;;5083166;28;20071;-93
2021/09/27 19:34:55;;;;;;;6.65;4.35;;;16.50;99.90;;;;;;5094343;28;20040;-91
2021/09/27 19:37:45;;;;;;;6.03;3.40;;;16.40;99.90;;;;;;5092329;28;20090;-92
2021/09/27 19:40:33;;;;;;;5.78;3.65;;;16.30;99.90;;;;;;5106943;28;20036;-92
2021/09/27 19:43:21;;;;;;;8.05;3.53;;;16.30;99.90;;;;;;5106496;28;20051;-92